Time;durP1;ratioP1;P1;durP2;ratioP2;P2;SDS_P1;SDS_P2;PMS_P1;PMS_P2;Temp;Humidity;BMP_temperature;BMP_pressure;BME280_temperature;BME280_humidity;BME280_pressure;Samples;Min_cycle;Max_cycle;Signal;HPM_P1;HPM_P2
2023/05/10 00:01:31;;;;;;;7.53;6.35;;;;;;;;;;5096201;28;20060;-77
2023/05/10 00:03:57;;;;;;;9.43;6.90;;;;;;;;;;5096089;28;20027;-77
2023/05/10 00:06:23;;;;;;;10.00;7.38;;;;;;;;;;5095660;28;20032;-77
2023/05/10 00:08:49;;;;;;;8.48;6.93;;;;;;;;;;5095974;28;20449;-77
2023/05/10 00:11:15;;;;;;;8.18;7.28;;;;;;;;;;5096086;28;20079;-76
2023/05/10 00:13:41;;;;;;;10.73;7.97;;;;;;;;;;5095920;28;20107;-77
2023/05/10 00:16:07;;;;;;;9.63;7.88;;;;;;;;;;5083080;28;20021;-77
2023/05/10 00:18:33;;;;;;;12.00;9.10;;;;;;;;;;5075336;28;20028;-77
2023/05/10 00:20:59;;;;;;;13.05;10.23;;;;;;;;;;5075490;28;20086;-77
2023/05/10 00:23:25;;;;;;;15.27;9.23;;;;;;;;;;5075268;28;20344;-77
2023/05/10 00:25:53;;;;;;;18.60;10.35;;;;;;;;;;5075286;28;20100;-77
2023/05/10 00:28:20;;;;;;;26.75;10.70;;;;;;;;;;5075553;28;20028;-77
2023/05/10 00:30:46;;;;;;;21.00;10.25;;;;;;;;;;5075260;28;20028;-77
2023/05/10 00:33:12;;;;;;;26.30;10.93;;;;;;;;;;5075111;28;20039;-77
2023/05/10 00:35:38;;;;;;;25.67;9.52;;;;;;;;;;5075251;28;20511;-77
2023/05/10 00:38:04;;;;;;;27.38;9.82;;;;;;;;;;5075202;28;20024;-77
2023/05/10 00:40:30;;;;;;;26.73;10.25;;;;;;;;;;5075280;28;20117;-77
2023/05/10 00:42:56;;;;;;;23.17;9.75;;;;;;;;;;5075195;28;20403;-77
2023/05/10 00:45:23;;;;;;;20.40;10.57;;;;;;;;;;5075132;28;20029;-77
2023/05/10 00:47:49;;;;;;;19.77;9.60;;;;;;;;;;5075069;28;20017;-77
2023/05/10 00:50:15;;;;;;;25.52;9.18;;;;;;;;;;5073904;28;20028;-77
2023/05/10 00:52:42;;;;;;;29.13;10.35;;;;;;;;;;5074970;28;20041;-77
2023/05/10 00:55:08;;;;;;;20.65;9.40;;;;;;;;;;5075042;28;20031;-77
2023/05/10 00:57:34;;;;;;;19.60;10.63;;;;;;;;;;5074899;28;20479;-77
2023/05/10 01:00:01;;;;;;;15.13;11.27;;;;;;;;;;5075063;28;20451;-77
2023/05/10 01:02:27;;;;;;;18.33;12.10;;;;;;;;;;5074762;28;20024;-77
2023/05/10 01:04:54;;;;;;;16.73;12.80;;;;;;;;;;5066472;28;20099;-77
2023/05/10 01:07:20;;;;;;;13.93;11.75;;;;;;;;;;5062446;28;20096;-77
2023/05/10 01:09:46;;;;;;;15.85;11.75;;;;;;;;;;5074619;28;20024;-77
2023/05/10 01:12:17;;;;;;;14.13;11.32;;;;;;;;;;5093360;28;20036;-77
2023/05/10 01:14:44;;;;;;;13.77;11.75;;;;;;;;;;5094820;28;20040;-77
2023/05/10 01:17:12;;;;;;;12.60;10.63;;;;;;;;;;5094730;28;20020;-77
2023/05/10 01:19:38;;;;;;;12.80;10.15;;;;;;;;;;5094586;28;20073;-77
2023/05/10 01:22:22;;;;;;;15.18;10.27;;;;;;;;;;5076364;28;20024;-77
2023/05/10 01:25:07;;;;;;;15.40;10.10;;;;;;;;;;5094546;28;20024;-77
2023/05/10 01:27:48;;;;;;;12.82;8.88;;;;;;;;;;5094576;28;20428;-77
2023/05/10 01:30:17;;;;;;;16.88;8.15;;;;;;;;;;5094511;28;20027;-77
2023/05/10 01:32:43;;;;;;;15.07;8.52;;;;;;;;;;5094421;28;20085;-78
2023/05/10 01:35:15;;;;;;;12.05;6.40;;;;;;;;;;5076001;28;20020;-77
2023/05/10 01:38:01;;;;;;;12.90;7.03;;;;;;;;;;5076086;28;20039;-77
2023/05/10 01:40:31;;;;;;;13.88;7.93;;;;;;;;;;5094025;28;20093;-77
2023/05/10 01:43:04;;;;;;;17.65;7.78;;;;;;;;;;5094745;28;20028;-77
2023/05/10 01:45:45;;;;;;;15.32;7.10;;;;;;;;;;5094057;28;20074;-77
2023/05/10 01:48:12;;;;;;;15.55;7.05;;;;;;;;;;5094292;28;20035;-77
2023/05/10 01:50:39;;;;;;;16.55;7.47;;;;;;;;;;5094128;28;20020;-77
2023/05/10 01:53:07;;;;;;;11.73;7.10;;;;;;;;;;5093995;28;20064;-77
2023/05/10 01:55:35;;;;;;;12.20;7.03;;;;;;;;;;5075845;28;20024;-77
2023/05/10 01:58:13;;;;;;;11.77;7.63;;;;;;;;;;5094096;28;20028;-77
2023/05/10 02:00:46;;;;;;;11.88;7.10;;;;;;;;;;5093995;28;20107;-77
2023/05/10 02:03:12;;;;;;;12.90;7.78;;;;;;;;;;5093962;28;20024;-77
2023/05/10 02:05:39;;;;;;;10.50;7.53;;;;;;;;;;5075634;28;20111;-77
2023/05/10 02:08:08;;;;;;;11.27;7.35;;;;;;;;;;5093238;28;20531;-77
2023/05/10 02:10:38;;;;;;;11.95;8.25;;;;;;;;;;5093891;28;20017;-77
2023/05/10 02:13:06;;;;;;;12.02;8.10;;;;;;;;;;5093775;28;20028;-77
2023/05/10 02:15:32;;;;;;;11.00;8.52;;;;;;;;;;5093609;28;20031;-77
2023/05/10 02:18:00;;;;;;;10.68;8.15;;;;;;;;;;5093556;28;20031;-77
2023/05/10 02:20:26;;;;;;;12.88;8.98;;;;;;;;;;5093418;28;20344;-77
2023/05/10 02:22:53;;;;;;;7.72;6.88;;;;;;;;;;5093445;28;20028;-77
2023/05/10 02:25:21;;;;;;;8.80;7.90;;;;;;;;;;5093479;28;20121;-77
2023/05/10 02:27:48;;;;;;;7.80;7.00;;;;;;;;;;5093344;28;20031;-77
2023/05/10 02:30:14;;;;;;;7.47;6.68;;;;;;;;;;5093299;28;20062;-77
2023/05/10 02:32:40;;;;;;;7.45;6.40;;;;;;;;;;5093484;28;20035;-77
2023/05/10 02:35:07;;;;;;;6.72;6.03;;;;;;;;;;5093381;28;20354;-77
2023/05/10 02:37:34;;;;;;;7.18;6.43;;;;;;;;;;5093323;28;20416;-77
2023/05/10 02:40:02;;;;;;;7.57;6.88;;;;;;;;;;5075319;28;20020;-77
2023/05/10 02:42:29;;;;;;;6.63;5.90;;;;;;;;;;5093713;28;20031;-77
2023/05/10 02:44:59;;;;;;;8.93;6.50;;;;;;;;;;5093214;28;20017;-77
2023/05/10 02:47:26;;;;;;;7.07;6.07;;;;;;;;;;5093424;28;20028;-77
2023/05/10 02:49:52;;;;;;;7.00;5.25;;;;;;;;;;5093200;28;20070;-77
2023/05/10 02:52:22;;;;;;;7.32;5.68;;;;;;;;;;5092997;28;20466;-77
2023/05/10 02:54:48;;;;;;;;;;;;;;;;;;5093790;28;20012;-77
2023/05/10 02:57:18;;;;;;;6.93;4.97;;;;;;;;;;5093336;28;19998;-77
2023/05/10 02:59:44;;;;;;;6.07;5.47;;;;;;;;;;5093622;28;20020;-77
2023/05/10 03:02:11;;;;;;;6.55;5.95;;;;;;;;;;5093418;28;20035;-77
2023/05/10 03:04:36;;;;;;;5.75;5.20;;;;;;;;;;5093151;28;20020;-77
2023/05/10 03:07:03;;;;;;;7.60;5.20;;;;;;;;;;5092033;28;20422;-77
2023/05/10 03:09:29;;;;;;;5.00;4.50;;;;;;;;;;5093299;28;20024;-77
2023/05/10 03:12:01;;;;;;;4.78;4.38;;;;;;;;;;5092988;28;20025;-77
2023/05/10 03:14:54;;;;;;;5.32;4.82;;;;;;;;;;5093299;28;20048;-77
2023/05/10 03:17:20;;;;;;;5.38;4.60;;;;;;;;;;5089275;28;20081;-77
2023/05/10 03:19:50;;;;;;;5.80;5.25;;;;;;;;;;5074818;28;20028;-77
2023/05/10 03:22:36;;;;;;;6.00;5.22;;;;;;;;;;5092948;28;20051;-77
2023/05/10 03:25:11;;;;;;;5.15;4.63;;;;;;;;;;5093088;28;20497;-77
2023/05/10 03:27:39;;;;;;;7.10;5.40;;;;;;;;;;5093377;28;20061;-77
2023/05/10 03:30:06;;;;;;;6.05;5.45;;;;;;;;;;5092826;28;20020;-77
2023/05/10 03:32:32;;;;;;;5.80;5.20;;;;;;;;;;5093001;28;20028;-77
2023/05/10 03:34:58;;;;;;;6.13;5.53;;;;;;;;;;5093177;28;20031;-77
2023/05/10 03:37:24;;;;;;;6.43;5.03;;;;;;;;;;5092806;28;20099;-77
2023/05/10 03:39:50;;;;;;;5.45;4.85;;;;;;;;;;5092842;28;20024;-77
2023/05/10 03:42:17;;;;;;;7.43;4.60;;;;;;;;;;5092775;28;20491;-77
2023/05/10 03:44:43;;;;;;;7.78;4.75;;;;;;;;;;5092949;28;20497;-77
2023/05/10 03:47:09;;;;;;;4.50;4.00;;;;;;;;;;5092593;28;20370;-77
2023/05/10 03:49:35;;;;;;;4.70;3.78;;;;;;;;;;5092806;28;20020;-77
2023/05/10 03:52:05;;;;;;;5.75;3.97;;;;;;;;;;5092628;28;20165;-77
2023/05/10 03:54:32;;;;;;;4.47;4.07;;;;;;;;;;5092960;28;20031;-77
2023/05/10 03:56:58;;;;;;;4.22;3.83;;;;;;;;;;5092951;28;20027;-77
2023/05/10 03:59:24;;;;;;;6.88;4.65;;;;;;;;;;5093878;28;20390;-77
2023/05/10 04:01:50;;;;;;;4.53;3.90;;;;;;;;;;5096684;28;20032;-77
2023/05/10 04:04:18;;;;;;;5.32;4.03;;;;;;;;;;5078263;28;20024;-77
2023/05/10 04:06:44;;;;;;;5.97;4.60;;;;;;;;;;5095995;28;20042;-78
2023/05/10 04:09:11;;;;;;;5.05;4.55;;;;;;;;;;5096586;28;20020;-78
2023/05/10 04:11:37;;;;;;;6.07;5.43;;;;;;;;;;5096036;28;20036;-77
2023/05/10 04:14:03;;;;;;;4.93;4.43;;;;;;;;;;5096015;28;20028;-77
2023/05/10 04:16:29;;;;;;;5.95;5.10;;;;;;;;;;5096003;28;20027;-78
2023/05/10 04:18:55;;;;;;;6.30;5.43;;;;;;;;;;5095535;28;20044;-77
2023/05/10 04:21:21;;;;;;;7.38;5.00;;;;;;;;;;5077649;28;20028;-77
2023/05/10 04:23:47;;;;;;;7.28;4.47;;;;;;;;;;5095236;28;20375;-77
2023/05/10 04:26:13;;;;;;;6.00;5.18;;;;;;;;;;5095476;28;20027;-77
2023/05/10 04:28:39;;;;;;;6.35;5.00;;;;;;;;;;5095591;28;20527;-77
2023/05/10 04:31:09;;;;;;;5.95;5.35;;;;;;;;;;5095606;28;20080;-77
2023/05/10 04:33:35;;;;;;;;;;;;;;;;;;5095783;28;20028;-77
2023/05/10 04:36:02;;;;;;;6.85;5.28;;;;;;;;;;5095364;28;19904;-77
2023/05/10 04:38:28;;;;;;;7.18;5.88;;;;;;;;;;5095151;28;20020;-77
2023/05/10 04:40:54;;;;;;;6.82;5.57;;;;;;;;;;5095026;28;20024;-78
2023/05/10 04:43:20;;;;;;;7.00;6.15;;;;;;;;;;5095151;28;20028;-78
2023/05/10 04:45:46;;;;;;;6.10;4.35;;;;;;;;;;5094829;28;20040;-78
2023/05/10 04:48:12;;;;;;;4.47;3.70;;;;;;;;;;5095245;28;20024;-78
2023/05/10 04:50:41;;;;;;;4.35;3.80;;;;;;;;;;5095810;28;20032;-78
2023/05/10 04:53:07;;;;;;;3.42;3.13;;;;;;;;;;5095508;28;20036;-78
2023/05/10 04:55:33;;;;;;;3.42;2.70;;;;;;;;;;5096534;28;20024;-78
2023/05/10 04:57:59;;;;;;;5.32;2.97;;;;;;;;;;5095693;28;20417;-78
2023/05/10 05:00:25;;;;;;;3.88;3.47;;;;;;;;;;5095613;28;20024;-77
2023/05/10 05:02:51;;;;;;;3.03;2.40;;;;;;;;;;5094989;28;20083;-76
2023/05/10 05:05:17;;;;;;;3.17;2.53;;;;;;;;;;5076855;28;20024;-76
2023/05/10 05:07:43;;;;;;;3.53;2.97;;;;;;;;;;5094587;28;20052;-77
2023/05/10 05:10:09;;;;;;;5.43;3.85;;;;;;;;;;5094281;28;20024;-76
2023/05/10 05:12:35;;;;;;;5.07;3.95;;;;;;;;;;5094342;28;20126;-76
2023/05/10 05:15:02;;;;;;;9.45;4.75;;;;;;;;;;5094652;28;20097;-76
2023/05/10 05:17:28;;;;;;;6.72;4.70;;;;;;;;;;5094625;28;20021;-76
2023/05/10 05:19:54;;;;;;;6.47;4.70;;;;;;;;;;5094572;28;20028;-76
2023/05/10 05:22:27;;;;;;;6.93;4.75;;;;;;;;;;5094611;28;20027;-76
2023/05/10 05:24:53;;;;;;;7.20;4.78;;;;;;;;;;5095144;28;20016;-76
2023/05/10 05:27:20;;;;;;;5.75;4.90;;;;;;;;;;5094475;28;20076;-77
2023/05/10 05:29:46;;;;;;;5.53;4.30;;;;;;;;;;5094848;28;20354;-76
2023/05/10 05:32:31;;;;;;;7.10;4.47;;;;;;;;;;5094319;28;20042;-76
2023/05/10 05:34:58;;;;;;;6.28;4.68;;;;;;;;;;5094489;28;20071;-76
2023/05/10 05:37:24;;;;;;;6.10;4.28;;;;;;;;;;5094347;28;20486;-77
2023/05/10 05:39:50;;;;;;;4.85;3.55;;;;;;;;;;5076330;28;20077;-76
2023/05/10 05:42:18;;;;;;;7.95;3.70;;;;;;;;;;5094268;28;20035;-76
2023/05/10 05:44:44;;;;;;;5.03;3.10;;;;;;;;;;5094542;28;20024;-76
2023/05/10 05:47:10;;;;;;;5.43;3.08;;;;;;;;;;5094308;28;20043;-76
2023/05/10 05:49:36;;;;;;;3.78;2.78;;;;;;;;;;5076283;28;20378;-76
2023/05/10 05:52:03;;;;;;;4.35;2.50;;;;;;;;;;5093921;28;20535;-76
2023/05/10 05:54:29;;;;;;;5.07;2.35;;;;;;;;;;5094105;28;20021;-76
2023/05/10 05:56:56;;;;;;;3.28;2.10;;;;;;;;;;5094253;28;20039;-76
2023/05/10 05:59:22;;;;;;;5.28;2.53;;;;;;;;;;5093803;28;20032;-76
2023/05/10 06:01:48;;;;;;;2.88;2.38;;;;;;;;;;5093970;28;20039;-77
2023/05/10 06:04:14;;;;;;;3.75;1.95;;;;;;;;;;5093109;28;20069;-77
2023/05/10 06:06:40;;;;;;;2.60;1.88;;;;;;;;;;5094620;28;20113;-78
2023/05/10 06:09:06;;;;;;;3.63;1.83;;;;;;;;;;5093997;28;20055;-77
2023/05/10 06:11:32;;;;;;;2.85;1.60;;;;;;;;;;5093706;28;20035;-77
2023/05/10 06:14:01;;;;;;;2.65;1.50;;;;;;;;;;5093744;28;20028;-77
2023/05/10 06:16:28;;;;;;;2.42;1.60;;;;;;;;;;5093628;28;20121;-77
2023/05/10 06:18:59;;;;;;;2.60;1.83;;;;;;;;;;5093729;28;20062;-77
2023/05/10 06:21:25;;;;;;;2.30;1.70;;;;;;;;;;5093487;28;20028;-77
2023/05/10 06:23:51;;;;;;;2.30;1.35;;;;;;;;;;5094054;28;20453;-77
2023/05/10 06:26:17;;;;;;;1.88;1.48;;;;;;;;;;5093591;28;20073;-77
2023/05/10 06:28:43;;;;;;;2.60;1.60;;;;;;;;;;5093656;28;20418;-77
2023/05/10 06:31:11;;;;;;;1.67;1.38;;;;;;;;;;5093557;28;20032;-77
2023/05/10 06:33:37;;;;;;;3.15;1.73;;;;;;;;;;5093583;28;20020;-77
2023/05/10 06:36:03;;;;;;;2.03;1.50;;;;;;;;;;5093534;28;20024;-77
2023/05/10 06:38:29;;;;;;;2.40;1.63;;;;;;;;;;5093542;28;20097;-77
2023/05/10 06:40:55;;;;;;;2.40;1.75;;;;;;;;;;5093474;28;20027;-78
2023/05/10 06:43:21;;;;;;;2.33;1.65;;;;;;;;;;5093557;28;20081;-77
2023/05/10 06:45:48;;;;;;;3.00;1.80;;;;;;;;;;5093241;28;20035;-78
2023/05/10 06:48:14;;;;;;;2.38;1.88;;;;;;;;;;5093351;28;20032;-77
2023/05/10 06:50:40;;;;;;;4.03;2.08;;;;;;;;;;5093192;28;20025;-77
2023/05/10 06:53:06;;;;;;;3.33;2.22;;;;;;;;;;5093147;28;20039;-77
2023/05/10 06:55:32;;;;;;;5.05;2.63;;;;;;;;;;5093361;28;20024;-77
2023/05/10 06:57:58;;;;;;;3.90;2.63;;;;;;;;;;5066869;28;20078;-77
2023/05/10 07:00:25;;;;;;;2.63;1.92;;;;;;;;;;5072883;28;20032;-78
2023/05/10 07:02:51;;;;;;;3.80;2.30;;;;;;;;;;5073523;28;20036;-77
2023/05/10 07:05:17;;;;;;;2.47;2.25;;;;;;;;;;5073005;28;20036;-77
2023/05/10 07:07:43;;;;;;;3.65;2.20;;;;;;;;;;5072676;28;20060;-78
2023/05/10 07:10:10;;;;;;;2.58;1.70;;;;;;;;;;5084152;28;20043;-78
2023/05/10 07:12:36;;;;;;;2.90;1.90;;;;;;;;;;5092752;28;20107;-77
2023/05/10 07:15:02;;;;;;;2.38;2.00;;;;;;;;;;5093103;28;20031;-77
2023/05/10 07:17:28;;;;;;;2.22;1.88;;;;;;;;;;5075328;28;20029;-77
2023/05/10 07:19:54;;;;;;;2.10;1.90;;;;;;;;;;5092966;28;20105;-77
2023/05/10 07:22:20;;;;;;;4.10;2.15;;;;;;;;;;5092972;28;20035;-77
2023/05/10 07:24:46;;;;;;;3.45;2.13;;;;;;;;;;5093211;28;20754;-77
2023/05/10 07:27:12;;;;;;;2.30;2.03;;;;;;;;;;5093230;28;20020;-77
2023/05/10 07:29:39;;;;;;;3.15;1.98;;;;;;;;;;5093239;28;20095;-77
2023/05/10 07:32:05;;;;;;;3.35;2.10;;;;;;;;;;5092993;28;20032;-77
2023/05/10 07:34:31;;;;;;;1.83;1.70;;;;;;;;;;5094565;28;20522;-77
2023/05/10 07:36:58;;;;;;;1.85;1.48;;;;;;;;;;5097393;28;20024;-77
2023/05/10 07:39:24;;;;;;;2.95;1.67;;;;;;;;;;5096905;28;20028;-77
2023/05/10 07:41:50;;;;;;;2.45;1.50;;;;;;;;;;5097034;28;20039;-77
2023/05/10 07:44:21;;;;;;;1.48;1.20;;;;;;;;;;5096790;28;20020;-77
2023/05/10 07:46:48;;;;;;;1.20;1.10;;;;;;;;;;5096561;28;20028;-77
2023/05/10 07:49:14;;;;;;;1.23;1.10;;;;;;;;;;5096783;28;20027;-77
2023/05/10 07:51:40;;;;;;;1.73;1.27;;;;;;;;;;5096566;28;20032;-77
2023/05/10 07:54:07;;;;;;;1.50;1.40;;;;;;;;;;5096550;28;20020;-77
2023/05/10 07:56:34;;;;;;;2.47;1.48;;;;;;;;;;5096936;28;20062;-77
2023/05/10 07:59:00;;;;;;;2.85;1.65;;;;;;;;;;5096485;28;20375;-77
2023/05/10 08:01:26;;;;;;;3.50;1.90;;;;;;;;;;5096608;28;20043;-77
2023/05/10 08:03:53;;;;;;;2.17;1.80;;;;;;;;;;5096596;28;20056;-77
2023/05/10 08:06:19;;;;;;;3.05;1.85;;;;;;;;;;5096273;28;20024;-78
2023/05/10 08:08:49;;;;;;;2.85;2.13;;;;;;;;;;5089353;28;20368;-79
2023/05/10 08:11:15;;;;;;;2.50;2.25;;;;;;;;;;5078815;28;20046;-78
2023/05/10 08:13:41;;;;;;;4.38;2.67;;;;;;;;;;5096290;28;20060;-78
2023/05/10 08:16:07;;;;;;;3.83;2.55;;;;;;;;;;5096417;28;20067;-77
2023/05/10 08:18:33;;;;;;;3.47;2.47;;;;;;;;;;5096099;28;20032;-77
2023/05/10 08:20:59;;;;;;;2.78;2.42;;;;;;;;;;5096123;28;20458;-78
2023/05/10 08:23:25;;;;;;;3.95;2.70;;;;;;;;;;5096104;28;20020;-77
2023/05/10 08:25:56;;;;;;;3.72;3.08;;;;;;;;;;5096497;28;20020;-78
2023/05/10 08:28:23;;;;;;;3.22;2.67;;;;;;;;;;5096130;28;20532;-77
2023/05/10 08:30:50;;;;;;;2.08;1.88;;;;;;;;;;5096043;28;20359;-78
2023/05/10 08:33:18;;;;;;;3.25;2.33;;;;;;;;;;5096370;28;20028;-78
2023/05/10 08:35:44;;;;;;;3.38;2.97;;;;;;;;;;5078086;28;20024;-78
2023/05/10 08:38:10;;;;;;;5.80;3.35;;;;;;;;;;5096854;28;20039;-78
2023/05/10 08:40:37;;;;;;;4.95;3.72;;;;;;;;;;5096129;28;20020;-78
2023/05/10 08:43:07;;;;;;;4.85;3.45;;;;;;;;;;5095869;28;20032;-78
2023/05/10 08:45:37;;;;;;;4.32;3.45;;;;;;;;;;5095876;28;20024;-78
2023/05/10 08:48:05;;;;;;;6.40;3.63;;;;;;;;;;5096311;28;20079;-78
2023/05/10 08:50:31;;;;;;;5.97;4.10;;;;;;;;;;5096027;28;20098;-78
2023/05/10 08:52:59;;;;;;;5.38;3.67;;;;;;;;;;5095798;28;20081;-78
2023/05/10 08:55:25;;;;;;;5.20;3.75;;;;;;;;;;5095870;28;20335;-78
2023/05/10 08:57:51;;;;;;;5.90;4.60;;;;;;;;;;5095454;28;20069;-78
2023/05/10 09:00:18;;;;;;;7.32;5.03;;;;;;;;;;5095328;28;20394;-78
2023/05/10 09:02:45;;;;;;;10.68;6.05;;;;;;;;;;5095325;28;20027;-78
2023/05/10 09:05:11;;;;;;;9.18;6.43;;;;;;;;;;5095809;28;20020;-78
2023/05/10 09:07:37;;;;;;;10.60;6.43;;;;;;;;;;5096739;28;20040;-79
2023/05/10 09:10:05;;;;;;;9.75;6.70;;;;;;;;;;5078594;28;20027;-79
2023/05/10 09:12:31;;;;;;;9.43;6.13;;;;;;;;;;5078781;28;20036;-78
2023/05/10 09:15:00;;;;;;;10.30;6.88;;;;;;;;;;5096610;28;20138;-78
2023/05/10 09:17:26;;;;;;;8.73;5.85;;;;;;;;;;5078223;28;20024;-78
2023/05/10 09:19:58;;;;;;;9.32;6.35;;;;;;;;;;5097281;28;20016;-78
2023/05/10 09:22:24;;;;;;;11.75;6.53;;;;;;;;;;5097105;28;20028;-78
2023/05/10 09:25:03;;;;;;;10.48;6.80;;;;;;;;;;5097509;28;20098;-78
2023/05/10 09:27:29;;;;;;;9.50;6.55;;;;;;;;;;5098204;28;20111;-78
2023/05/10 09:29:55;;;;;;;10.02;6.82;;;;;;;;;;5097822;28;21671;-78
2023/05/10 09:32:21;;;;;;;10.35;7.15;;;;;;;;;;5095992;28;20031;-78
2023/05/10 09:34:50;;;;;;;8.75;6.88;;;;;;;;;;5095414;28;20459;-78
2023/05/10 09:37:16;;;;;;;8.65;6.30;;;;;;;;;;5081927;28;20062;-78
2023/05/10 09:39:42;;;;;;;9.85;6.25;;;;;;;;;;5075716;28;20035;-78
2023/05/10 09:42:10;;;;;;;8.60;6.60;;;;;;;;;;5087751;28;20032;-78
2023/05/10 09:44:36;;;;;;;9.55;6.47;;;;;;;;;;5094529;28;20028;-78
2023/05/10 09:47:02;;;;;;;7.63;5.93;;;;;;;;;;5093659;28;20046;-77
2023/05/10 09:49:29;;;;;;;8.00;6.15;;;;;;;;;;5093520;28;20020;-77
2023/05/10 09:52:05;;;;;;;9.88;6.15;;;;;;;;;;5093478;28;20113;-77
2023/05/10 09:54:32;;;;;;;9.43;6.68;;;;;;;;;;5093638;28;20069;-77
2023/05/10 09:56:59;;;;;;;8.80;6.90;;;;;;;;;;5092941;28;20020;-77
2023/05/10 09:59:28;;;;;;;9.35;6.82;;;;;;;;;;5093760;28;20032;-77
2023/05/10 10:02:00;;;;;;;8.23;6.22;;;;;;;;;;5093487;28;20028;-77
2023/05/10 10:04:26;;;;;;;7.90;5.43;;;;;;;;;;5093890;28;20107;-77
2023/05/10 10:07:00;;;;;;;7.65;4.93;;;;;;;;;;5093960;28;20462;-78
2023/05/10 10:09:27;;;;;;;8.27;5.70;;;;;;;;;;5076893;28;20077;-78
2023/05/10 10:11:55;;;;;;;10.25;7.13;;;;;;;;;;5094567;28;20042;-78
2023/05/10 10:14:22;;;;;;;12.10;8.88;;;;;;;;;;5094984;28;20031;-78
2023/05/10 10:16:49;;;;;;;14.63;8.98;;;;;;;;;;5079991;28;20024;-78
2023/05/10 10:19:15;;;;;;;11.80;7.68;;;;;;;;;;5090483;28;20074;-78
2023/05/10 10:21:41;;;;;;;12.05;8.32;;;;;;;;;;5097816;28;20028;-78
2023/05/10 10:24:07;;;;;;;14.05;8.50;;;;;;;;;;5098248;28;20034;-78
2023/05/10 10:26:42;;;;;;;10.63;7.47;;;;;;;;;;5097796;28;20180;-78
2023/05/10 10:29:31;;;;;;;9.55;7.30;;;;;;;;;;5095414;28;20016;-78
2023/05/10 10:32:04;;;;;;;10.40;7.00;;;;;;;;;;5095634;28;20040;-78
2023/05/10 10:34:36;;;;;;;8.85;6.88;;;;;;;;;;5096345;28;20442;-78
2023/05/10 10:37:06;;;;;;;8.70;6.65;;;;;;;;;;5095241;28;20526;-79
2023/05/10 10:39:32;;;;;;;7.90;6.65;;;;;;;;;;5076878;28;20031;-78
2023/05/10 10:41:59;;;;;;;8.07;5.95;;;;;;;;;;5093609;28;20020;-78
2023/05/10 10:44:27;;;;;;;7.88;6.28;;;;;;;;;;5080509;28;20028;-78
2023/05/10 10:47:11;;;;;;;8.82;6.50;;;;;;;;;;5096877;28;20107;-78
2023/05/10 10:49:46;;;;;;;7.60;5.90;;;;;;;;;;5116208;28;20020;-78
2023/05/10 10:52:28;;;;;;;8.70;6.38;;;;;;;;;;5115641;28;20085;-78
2023/05/10 10:55:14;;;;;;;7.93;6.45;;;;;;;;;;5114833;28;20045;-78
2023/05/10 10:57:40;;;;;;;9.25;6.78;;;;;;;;;;5098488;28;20035;-79
2023/05/10 11:00:26;;;;;;;8.45;6.35;;;;;;;;;;5114653;28;20026;-78
2023/05/10 11:02:54;;;;;;;6.88;5.13;;;;;;;;;;5091965;28;20016;-78
2023/05/10 11:05:36;;;;;;;7.10;5.53;;;;;;;;;;5111060;28;20027;-78
2023/05/10 11:08:13;;;;;;;5.38;4.35;;;;;;;;;;5099625;28;20052;-78
2023/05/10 11:10:39;;;;;;;6.07;5.25;;;;;;;;;;5080079;28;20029;-79
2023/05/10 11:13:06;;;;;;;7.80;5.70;;;;;;;;;;5078209;28;20046;-78
2023/05/10 11:15:33;;;;;;;7.15;5.32;;;;;;;;;;5096663;28;20055;-78
2023/05/10 11:17:59;;;;;;;5.55;5.00;;;;;;;;;;5100878;28;20032;-78
2023/05/10 11:20:33;;;;;;;6.80;4.90;;;;;;;;;;5099106;28;20375;-78
2023/05/10 11:23:17;;;;;;;4.85;4.38;;;;;;;;;;5112197;28;20039;-78
2023/05/10 11:25:46;;;;;;;4.30;3.88;;;;;;;;;;5082537;28;20020;-78
2023/05/10 11:28:13;;;;;;;5.47;4.97;;;;;;;;;;5097339;28;20016;-78
2023/05/10 11:30:40;;;;;;;6.45;4.70;;;;;;;;;;5097416;28;20392;-78
2023/05/10 11:33:07;;;;;;;6.13;5.53;;;;;;;;;;5097477;28;20509;-78
2023/05/10 11:35:39;;;;;;;7.70;5.30;;;;;;;;;;5098086;28;20056;-78
2023/05/10 11:38:09;;;;;;;6.60;5.13;;;;;;;;;;5097439;28;20057;-78
2023/05/10 11:40:35;;;;;;;6.65;5.78;;;;;;;;;;5098095;28;20016;-78
2023/05/10 11:43:02;;;;;;;7.65;6.55;;;;;;;;;;5079481;28;20394;-78
2023/05/10 11:45:29;;;;;;;7.82;6.57;;;;;;;;;;5097398;28;20028;-78
2023/05/10 11:47:56;;;;;;;8.85;6.97;;;;;;;;;;5079130;28;20119;-79
2023/05/10 11:50:22;;;;;;;8.77;6.70;;;;;;;;;;5097294;28;20024;-78
2023/05/10 11:52:52;;;;;;;8.07;6.13;;;;;;;;;;5097134;28;20028;-78
2023/05/10 11:55:18;;;;;;;8.13;6.57;;;;;;;;;;5097479;28;20048;-78
2023/05/10 11:57:45;;;;;;;8.05;6.20;;;;;;;;;;5075904;28;20493;-78
2023/05/10 12:00:12;;;;;;;9.32;7.32;;;;;;;;;;5092978;28;20043;-79
2023/05/10 12:02:38;;;;;;;10.20;7.60;;;;;;;;;;5097431;28;20027;-78
2023/05/10 12:05:05;;;;;;;10.15;7.78;;;;;;;;;;5096523;28;20069;-79
2023/05/10 12:07:31;;;;;;;13.35;10.00;;;;;;;;;;5095400;28;20043;-78
2023/05/10 12:10:23;;;;;;;13.35;9.43;;;;;;;;;;5096512;28;20024;-78
2023/05/10 12:12:52;;;;;;;12.27;8.93;;;;;;;;;;5075530;28;20123;-78
2023/05/10 12:15:22;;;;;;;10.52;8.13;;;;;;;;;;5096538;28;20082;-78
2023/05/10 12:17:48;;;;;;;13.23;8.57;;;;;;;;;;5095473;28;20032;-78
2023/05/10 12:20:21;;;;;;;12.00;8.45;;;;;;;;;;5095833;28;20032;-78
2023/05/10 12:22:51;;;;;;;12.88;9.00;;;;;;;;;;5096270;28;20043;-78
2023/05/10 12:25:21;;;;;;;9.85;7.88;;;;;;;;;;5096527;28;20020;-78
2023/05/10 12:27:57;;;;;;;9.27;7.72;;;;;;;;;;5098353;28;20025;-78
2023/05/10 12:30:24;;;;;;;11.25;8.23;;;;;;;;;;5112534;28;20027;-78
2023/05/10 12:32:50;;;;;;;11.35;8.15;;;;;;;;;;5078275;28;20082;-78
2023/05/10 12:35:16;;;;;;;10.80;7.18;;;;;;;;;;5079996;28;20020;-78
2023/05/10 12:37:45;;;;;;;10.60;6.68;;;;;;;;;;5109489;28;20105;-78
2023/05/10 12:40:11;;;;;;;10.70;7.57;;;;;;;;;;5117829;28;20073;-79
2023/05/10 12:42:38;;;;;;;10.07;7.70;;;;;;;;;;5093298;28;20066;-78
2023/05/10 12:45:08;;;;;;;8.18;6.65;;;;;;;;;;5078662;28;20036;-78
2023/05/10 12:47:34;;;;;;;10.98;7.72;;;;;;;;;;5101476;28;20024;-78
2023/05/10 12:50:01;;;;;;;11.32;7.90;;;;;;;;;;5100681;28;20372;-78
2023/05/10 12:53:02;;;;;;;10.35;8.13;;;;;;;;;;5096250;28;20024;-78
2023/05/10 12:55:28;;;;;;;8.55;6.35;;;;;;;;;;5095670;28;20030;-78
2023/05/10 12:57:54;;;;;;;11.00;7.82;;;;;;;;;;5095616;28;20024;-78
2023/05/10 13:00:20;;;;;;;9.07;7.80;;;;;;;;;;5096129;28;20024;-78
2023/05/10 13:02:46;;;;;;;7.95;6.93;;;;;;;;;;5095537;28;20507;-78
2023/05/10 13:05:13;;;;;;;7.20;6.45;;;;;;;;;;5095385;28;20028;-78
2023/05/10 13:07:39;;;;;;;8.18;7.38;;;;;;;;;;5094798;28;20036;-78
2023/05/10 13:10:06;;;;;;;7.38;6.13;;;;;;;;;;5095307;28;20024;-78
2023/05/10 13:12:32;;;;;;;8.90;7.65;;;;;;;;;;5089662;28;20036;-77
2023/05/10 13:14:58;;;;;;;9.48;6.50;;;;;;;;;;5080404;28;20043;-78
2023/05/10 13:17:25;;;;;;;9.55;7.32;;;;;;;;;;5084221;28;20386;-78
2023/05/10 13:19:51;;;;;;;8.85;7.68;;;;;;;;;;5091751;28;20091;-78
2023/05/10 13:22:24;;;;;;;7.75;6.85;;;;;;;;;;5094613;28;20032;-77
2023/05/10 13:24:50;;;;;;;8.98;7.53;;;;;;;;;;5094373;28;20433;-78
2023/05/10 13:27:16;;;;;;;8.45;7.20;;;;;;;;;;5095331;28;20043;-78
2023/05/10 13:29:42;;;;;;;7.93;7.13;;;;;;;;;;5095430;28;20446;-78
2023/05/10 13:32:10;;;;;;;7.68;6.68;;;;;;;;;;5093570;28;20044;-78
2023/05/10 13:34:37;;;;;;;6.82;6.10;;;;;;;;;;5094414;28;20028;-77
2023/05/10 13:37:03;;;;;;;6.40;5.78;;;;;;;;;;5094408;28;20027;-78
2023/05/10 13:39:33;;;;;;;7.35;6.22;;;;;;;;;;5094628;28;20429;-78
2023/05/10 13:41:59;;;;;;;8.15;7.10;;;;;;;;;;5094761;28;20024;-78
2023/05/10 13:44:25;;;;;;;7.70;6.13;;;;;;;;;;5094811;28;20020;-79
2023/05/10 13:46:51;;;;;;;7.63;6.20;;;;;;;;;;5094460;28;20490;-78
2023/05/10 13:49:17;;;;;;;6.07;5.47;;;;;;;;;;5089815;28;20146;-77
2023/05/10 13:51:44;;;;;;;7.05;6.18;;;;;;;;;;5073295;28;20063;-77
2023/05/10 13:54:10;;;;;;;6.70;4.65;;;;;;;;;;5073209;28;20042;-77
2023/05/10 13:56:36;;;;;;;6.03;5.13;;;;;;;;;;5094344;28;20476;-77
2023/05/10 13:59:02;;;;;;;4.93;4.53;;;;;;;;;;5113940;28;20098;-78
2023/05/10 14:01:28;;;;;;;5.40;4.90;;;;;;;;;;5095813;28;20104;-77
2023/05/10 14:03:54;;;;;;;6.40;5.80;;;;;;;;;;5113720;28;20051;-77
2023/05/10 14:06:20;;;;;;;5.95;5.35;;;;;;;;;;5113854;28;20099;-77
2023/05/10 14:08:46;;;;;;;5.38;4.88;;;;;;;;;;5113282;28;20059;-78
2023/05/10 14:11:12;;;;;;;5.47;4.97;;;;;;;;;;5114196;28;20019;-78
2023/05/10 14:13:38;;;;;;;4.50;4.10;;;;;;;;;;5113977;28;20045;-77
2023/05/10 14:16:06;;;;;;;6.82;5.00;;;;;;;;;;5095675;28;20028;-77
2023/05/10 14:18:32;;;;;;;5.85;5.35;;;;;;;;;;5113849;28;20037;-77
2023/05/10 14:20:58;;;;;;;6.82;5.97;;;;;;;;;;5113758;28;20102;-77
2023/05/10 14:23:25;;;;;;;6.55;5.88;;;;;;;;;;5109610;28;20441;-77
2023/05/10 14:25:53;;;;;;;6.20;5.40;;;;;;;;;;5093482;28;20020;-77
2023/05/10 14:28:20;;;;;;;6.65;6.05;;;;;;;;;;5093389;28;20118;-77
2023/05/10 14:30:46;;;;;;;7.65;6.80;;;;;;;;;;5093080;28;20023;-77
2023/05/10 14:33:12;;;;;;;7.07;6.38;;;;;;;;;;5104169;28;20038;-77
2023/05/10 14:35:38;;;;;;;8.07;7.18;;;;;;;;;;5113626;28;20020;-77
2023/05/10 14:38:05;;;;;;;8.20;7.30;;;;;;;;;;5113505;28;20020;-77
2023/05/10 14:40:31;;;;;;;8.07;7.28;;;;;;;;;;5113681;28;20030;-76
2023/05/10 14:42:57;;;;;;;7.00;6.18;;;;;;;;;;5112762;28;20031;-76
2023/05/10 14:45:23;;;;;;;7.10;5.78;;;;;;;;;;5105596;28;20021;-76